sensor_id;sensor_type;location;lat;lon;timestamp;P1;durP1;ratioP1;P2;durP2;ratioP2
14056;SDS011;7103;54.300;10.180;2023-04-15T00:00:56;0.03;;;0.03;;
14056;SDS011;7103;54.300;10.180;2023-04-15T00:03:25;0.00;;;0.00;;
14056;SDS011;7103;54.300;10.180;2023-04-15T00:05:54;0.10;;;0.10;;
14056;SDS011;7103;54.300;10.180;2023-04-15T00:08:21;0.10;;;0.10;;
14056;SDS011;7103;54.300;10.180;2023-04-15T00:10:48;0.10;;;0.10;;
14056;SDS011;7103;54.300;10.180;2023-04-15T00:13:16;0.10;;;0.10;;
14056;SDS011;7103;54.300;10.180;2023-04-15T00:15:43;0.10;;;0.10;;
14056;SDS011;7103;54.300;10.180;2023-04-15T00:18:10;0.10;;;0.10;;
14056;SDS011;7103;54.300;10.180;2023-04-15T00:20:37;0.00;;;0.00;;
14056;SDS011;7103;54.300;10.180;2023-04-15T00:23:04;0.10;;;0.10;;
14056;SDS011;7103;54.300;10.180;2023-04-15T00:25:30;0.00;;;0.00;;
14056;SDS011;7103;54.300;10.180;2023-04-15T00:27:58;0.00;;;0.00;;
14056;SDS011;7103;54.300;10.180;2023-04-15T00:30:25;0.00;;;0.00;;
14056;SDS011;7103;54.300;10.180;2023-04-15T00:32:52;0.10;;;0.10;;
14056;SDS011;7103;54.300;10.180;2023-04-15T00:35:19;0.00;;;0.00;;
14056;SDS011;7103;54.300;10.180;2023-04-15T00:37:47;0.00;;;0.00;;
14056;SDS011;7103;54.300;10.180;2023-04-15T00:40:13;0.00;;;0.00;;
14056;SDS011;7103;54.300;10.180;2023-04-15T00:42:44;0.00;;;0.00;;
14056;SDS011;7103;54.300;10.180;2023-04-15T00:45:11;0.00;;;0.00;;
14056;SDS011;7103;54.300;10.180;2023-04-15T00:47:38;0.00;;;0.00;;
14056;SDS011;7103;54.300;10.180;2023-04-15T00:50:07;0.00;;;0.00;;
14056;SDS011;7103;54.300;10.180;2023-04-15T00:52:35;0.00;;;0.00;;
14056;SDS011;7103;54.300;10.180;2023-04-15T00:55:03;0.00;;;0.00;;
14056;SDS011;7103;54.300;10.180;2023-04-15T00:57:30;0.03;;;0.03;;
14056;SDS011;7103;54.300;10.180;2023-04-15T00:59:58;0.00;;;0.00;;
14056;SDS011;7103;54.300;10.180;2023-04-15T01:02:26;0.00;;;0.00;;
14056;SDS011;7103;54.300;10.180;2023-04-15T01:04:53;0.00;;;0.00;;
14056;SDS011;7103;54.300;10.180;2023-04-15T01:07:22;0.00;;;0.00;;
14056;SDS011;7103;54.300;10.180;2023-04-15T01:09:48;0.00;;;0.00;;
14056;SDS011;7103;54.300;10.180;2023-04-15T01:12:16;0.00;;;0.00;;
14056;SDS011;7103;54.300;10.180;2023-04-15T01:14:43;0.00;;;0.00;;
14056;SDS011;7103;54.300;10.180;2023-04-15T01:17:10;0.00;;;0.00;;
14056;SDS011;7103;54.300;10.180;2023-04-15T01:19:38;0.00;;;0.00;;
14056;SDS011;7103;54.300;10.180;2023-04-15T01:22:06;0.10;;;0.10;;
14056;SDS011;7103;54.300;10.180;2023-04-15T01:24:32;0.10;;;0.10;;
14056;SDS011;7103;54.300;10.180;2023-04-15T01:27:02;0.10;;;0.10;;
14056;SDS011;7103;54.300;10.180;2023-04-15T01:29:35;0.00;;;0.00;;
14056;SDS011;7103;54.300;10.180;2023-04-15T01:32:03;0.00;;;0.00;;
14056;SDS011;7103;54.300;10.180;2023-04-15T01:34:31;0.00;;;0.00;;
14056;SDS011;7103;54.300;10.180;2023-04-15T01:37:01;0.00;;;0.00;;
14056;SDS011;7103;54.300;10.180;2023-04-15T01:39:27;0.00;;;0.00;;
14056;SDS011;7103;54.300;10.180;2023-04-15T01:41:54;0.00;;;0.00;;
14056;SDS011;7103;54.300;10.180;2023-04-15T01:44:22;0.10;;;0.10;;
14056;SDS011;7103;54.300;10.180;2023-04-15T01:46:49;0.00;;;0.00;;
14056;SDS011;7103;54.300;10.180;2023-04-15T01:49:16;0.00;;;0.00;;
14056;SDS011;7103;54.300;10.180;2023-04-15T01:51:44;0.00;;;0.00;;
14056;SDS011;7103;54.300;10.180;2023-04-15T01:54:11;0.00;;;0.00;;
14056;SDS011;7103;54.300;10.180;2023-04-15T01:56:38;0.00;;;0.00;;
14056;SDS011;7103;54.300;10.180;2023-04-15T01:59:04;0.00;;;0.00;;
14056;SDS011;7103;54.300;10.180;2023-04-15T02:01:31;0.00;;;0.00;;
14056;SDS011;7103;54.300;10.180;2023-04-15T02:03:59;0.00;;;0.00;;
14056;SDS011;7103;54.300;10.180;2023-04-15T02:06:26;0.00;;;0.00;;
14056;SDS011;7103;54.300;10.180;2023-04-15T02:08:53;0.00;;;0.00;;
14056;SDS011;7103;54.300;10.180;2023-04-15T02:11:20;0.00;;;0.00;;
14056;SDS011;7103;54.300;10.180;2023-04-15T02:13:48;0.00;;;0.00;;
14056;SDS011;7103;54.300;10.180;2023-04-15T02:16:15;0.00;;;0.00;;
14056;SDS011;7103;54.300;10.180;2023-04-15T02:18:46;0.00;;;0.00;;
14056;SDS011;7103;54.300;10.180;2023-04-15T02:21:13;0.00;;;0.00;;
14056;SDS011;7103;54.300;10.180;2023-04-15T02:23:40;0.00;;;0.00;;
14056;SDS011;7103;54.300;10.180;2023-04-15T02:26:07;0.00;;;0.00;;
14056;SDS011;7103;54.300;10.180;2023-04-15T02:28:34;0.00;;;0.00;;
14056;SDS011;7103;54.300;10.180;2023-04-15T02:31:05;0.00;;;0.00;;
14056;SDS011;7103;54.300;10.180;2023-04-15T02:33:33;0.00;;;0.00;;
14056;SDS011;7103;54.300;10.180;2023-04-15T02:36:00;0.00;;;0.00;;
14056;SDS011;7103;54.300;10.180;2023-04-15T02:38:27;0.00;;;0.00;;
14056;SDS011;7103;54.300;10.180;2023-04-15T02:40:54;0.00;;;0.00;;
14056;SDS011;7103;54.300;10.180;2023-04-15T02:43:22;0.00;;;0.00;;
14056;SDS011;7103;54.300;10.180;2023-04-15T02:45:49;0.00;;;0.00;;
14056;SDS011;7103;54.300;10.180;2023-04-15T02:48:16;0.10;;;0.10;;
14056;SDS011;7103;54.300;10.180;2023-04-15T02:50:45;0.00;;;0.00;;
14056;SDS011;7103;54.300;10.180;2023-04-15T02:53:13;0.00;;;0.00;;
14056;SDS011;7103;54.300;10.180;2023-04-15T02:55:40;0.10;;;0.10;;
14056;SDS011;7103;54.300;10.180;2023-04-15T02:58:08;0.00;;;0.00;;
14056;SDS011;7103;54.300;10.180;2023-04-15T03:00:35;0.00;;;0.00;;
14056;SDS011;7103;54.300;10.180;2023-04-15T03:03:03;0.10;;;0.10;;
14056;SDS011;7103;54.300;10.180;2023-04-15T03:05:31;0.00;;;0.00;;
14056;SDS011;7103;54.300;10.180;2023-04-15T03:07:58;0.03;;;0.03;;
14056;SDS011;7103;54.300;10.180;2023-04-15T03:10:26;0.00;;;0.00;;
14056;SDS011;7103;54.300;10.180;2023-04-15T03:12:53;0.00;;;0.00;;
14056;SDS011;7103;54.300;10.180;2023-04-15T03:15:21;0.00;;;0.00;;
14056;SDS011;7103;54.300;10.180;2023-04-15T03:17:48;0.00;;;0.00;;
14056;SDS011;7103;54.300;10.180;2023-04-15T03:20:15;0.00;;;0.00;;
14056;SDS011;7103;54.300;10.180;2023-04-15T03:22:42;0.00;;;0.00;;
14056;SDS011;7103;54.300;10.180;2023-04-15T03:25:09;0.00;;;0.00;;
14056;SDS011;7103;54.300;10.180;2023-04-15T03:27:36;0.00;;;0.00;;
14056;SDS011;7103;54.300;10.180;2023-04-15T03:30:04;0.00;;;0.00;;
14056;SDS011;7103;54.300;10.180;2023-04-15T03:32:32;0.00;;;0.00;;
14056;SDS011;7103;54.300;10.180;2023-04-15T03:34:59;0.00;;;0.00;;
14056;SDS011;7103;54.300;10.180;2023-04-15T03:37:26;0.00;;;0.00;;
14056;SDS011;7103;54.300;10.180;2023-04-15T03:39:52;0.00;;;0.00;;
14056;SDS011;7103;54.300;10.180;2023-04-15T03:42:19;0.00;;;0.00;;
14056;SDS011;7103;54.300;10.180;2023-04-15T03:44:46;0.00;;;0.00;;
14056;SDS011;7103;54.300;10.180;2023-04-15T03:47:13;0.00;;;0.00;;
14056;SDS011;7103;54.300;10.180;2023-04-15T03:49:40;0.00;;;0.00;;
14056;SDS011;7103;54.300;10.180;2023-04-15T03:52:07;0.00;;;0.00;;
14056;SDS011;7103;54.300;10.180;2023-04-15T03:54:34;0.00;;;0.00;;
14056;SDS011;7103;54.300;10.180;2023-04-15T03:57:01;0.00;;;0.00;;
14056;SDS011;7103;54.300;10.180;2023-04-15T03:59:28;0.00;;;0.00;;
14056;SDS011;7103;54.300;10.180;2023-04-15T04:01:55;0.00;;;0.00;;
14056;SDS011;7103;54.300;10.180;2023-04-15T04:04:22;0.00;;;0.00;;
14056;SDS011;7103;54.300;10.180;2023-04-15T04:06:49;0.00;;;0.00;;
14056;SDS011;7103;54.300;10.180;2023-04-15T04:09:16;0.00;;;0.00;;
14056;SDS011;7103;54.300;10.180;2023-04-15T04:11:43;0.00;;;0.00;;
14056;SDS011;7103;54.300;10.180;2023-04-15T04:14:10;0.00;;;0.00;;
14056;SDS011;7103;54.300;10.180;2023-04-15T04:16:37;0.00;;;0.00;;
14056;SDS011;7103;54.300;10.180;2023-04-15T04:19:04;0.03;;;0.03;;
14056;SDS011;7103;54.300;10.180;2023-04-15T04:21:31;0.00;;;0.00;;
14056;SDS011;7103;54.300;10.180;2023-04-15T04:23:59;0.00;;;0.00;;
14056;SDS011;7103;54.300;10.180;2023-04-15T04:26:26;0.00;;;0.00;;
14056;SDS011;7103;54.300;10.180;2023-04-15T04:28:53;0.00;;;0.00;;
14056;SDS011;7103;54.300;10.180;2023-04-15T04:31:20;0.00;;;0.00;;
14056;SDS011;7103;54.300;10.180;2023-04-15T04:33:47;0.00;;;0.00;;
14056;SDS011;7103;54.300;10.180;2023-04-15T04:36:14;0.00;;;0.00;;
14056;SDS011;7103;54.300;10.180;2023-04-15T04:38:41;0.00;;;0.00;;
14056;SDS011;7103;54.300;10.180;2023-04-15T04:41:08;0.00;;;0.00;;
14056;SDS011;7103;54.300;10.180;2023-04-15T04:43:35;0.00;;;0.00;;
14056;SDS011;7103;54.300;10.180;2023-04-15T04:46:02;0.00;;;0.00;;
14056;SDS011;7103;54.300;10.180;2023-04-15T04:48:29;0.00;;;0.00;;
14056;SDS011;7103;54.300;10.180;2023-04-15T04:50:56;0.00;;;0.00;;
14056;SDS011;7103;54.300;10.180;2023-04-15T04:53:23;0.00;;;0.00;;
14056;SDS011;7103;54.300;10.180;2023-04-15T04:55:50;0.00;;;0.00;;
14056;SDS011;7103;54.300;10.180;2023-04-15T04:58:17;0.00;;;0.00;;
14056;SDS011;7103;54.300;10.180;2023-04-15T05:00:44;0.00;;;0.00;;
14056;SDS011;7103;54.300;10.180;2023-04-15T05:03:11;0.00;;;0.00;;
14056;SDS011;7103;54.300;10.180;2023-04-15T05:05:38;0.00;;;0.00;;
14056;SDS011;7103;54.300;10.180;2023-04-15T05:08:06;0.00;;;0.00;;
14056;SDS011;7103;54.300;10.180;2023-04-15T05:10:33;0.00;;;0.00;;
14056;SDS011;7103;54.300;10.180;2023-04-15T05:13:00;0.00;;;0.00;;
14056;SDS011;7103;54.300;10.180;2023-04-15T05:15:27;0.00;;;0.00;;
14056;SDS011;7103;54.300;10.180;2023-04-15T05:17:54;0.00;;;0.00;;
14056;SDS011;7103;54.300;10.180;2023-04-15T05:20:21;0.00;;;0.00;;
14056;SDS011;7103;54.300;10.180;2023-04-15T05:22:48;0.00;;;0.00;;
14056;SDS011;7103;54.300;10.180;2023-04-15T05:25:15;0.00;;;0.00;;
14056;SDS011;7103;54.300;10.180;2023-04-15T05:27:43;0.00;;;0.00;;
14056;SDS011;7103;54.300;10.180;2023-04-15T05:30:10;0.00;;;0.00;;
14056;SDS011;7103;54.300;10.180;2023-04-15T05:32:39;0.00;;;0.00;;
14056;SDS011;7103;54.300;10.180;2023-04-15T05:35:06;0.00;;;0.00;;
14056;SDS011;7103;54.300;10.180;2023-04-15T05:37:33;0.00;;;0.00;;
14056;SDS011;7103;54.300;10.180;2023-04-15T05:40:00;0.00;;;0.00;;
14056;SDS011;7103;54.300;10.180;2023-04-15T05:42:27;0.00;;;0.00;;
14056;SDS011;7103;54.300;10.180;2023-04-15T05:44:54;0.00;;;0.00;;
14056;SDS011;7103;54.300;10.180;2023-04-15T05:47:21;0.00;;;0.00;;
14056;SDS011;7103;54.300;10.180;2023-04-15T05:49:49;0.00;;;0.00;;
14056;SDS011;7103;54.300;10.180;2023-04-15T05:52:16;0.00;;;0.00;;
14056;SDS011;7103;54.300;10.180;2023-04-15T05:54:43;0.00;;;0.00;;
14056;SDS011;7103;54.300;10.180;2023-04-15T05:57:10;0.00;;;0.00;;
14056;SDS011;7103;54.300;10.180;2023-04-15T05:59:37;0.00;;;0.00;;
14056;SDS011;7103;54.300;10.180;2023-04-15T06:02:04;0.00;;;0.00;;
14056;SDS011;7103;54.300;10.180;2023-04-15T06:04:31;0.00;;;0.00;;
14056;SDS011;7103;54.300;10.180;2023-04-15T06:06:58;0.00;;;0.00;;
14056;SDS011;7103;54.300;10.180;2023-04-15T06:09:25;0.00;;;0.00;;
14056;SDS011;7103;54.300;10.180;2023-04-15T06:11:54;0.00;;;0.00;;
14056;SDS011;7103;54.300;10.180;2023-04-15T06:14:22;0.00;;;0.00;;
14056;SDS011;7103;54.300;10.180;2023-04-15T06:16:49;0.00;;;0.00;;
14056;SDS011;7103;54.300;10.180;2023-04-15T06:19:16;0.00;;;0.00;;
14056;SDS011;7103;54.300;10.180;2023-04-15T06:21:43;0.00;;;0.00;;
14056;SDS011;7103;54.300;10.180;2023-04-15T06:24:11;0.00;;;0.00;;
14056;SDS011;7103;54.300;10.180;2023-04-15T06:26:38;0.00;;;0.00;;
14056;SDS011;7103;54.300;10.180;2023-04-15T06:29:05;0.00;;;0.00;;
14056;SDS011;7103;54.300;10.180;2023-04-15T06:31:32;0.00;;;0.00;;
14056;SDS011;7103;54.300;10.180;2023-04-15T06:33:59;0.00;;;0.00;;
14056;SDS011;7103;54.300;10.180;2023-04-15T06:36:26;0.00;;;0.00;;
14056;SDS011;7103;54.300;10.180;2023-04-15T06:38:53;0.00;;;0.00;;
14056;SDS011;7103;54.300;10.180;2023-04-15T06:41:20;0.00;;;0.00;;
14056;SDS011;7103;54.300;10.180;2023-04-15T06:43:47;0.00;;;0.00;;
14056;SDS011;7103;54.300;10.180;2023-04-15T06:46:14;0.00;;;0.00;;
14056;SDS011;7103;54.300;10.180;2023-04-15T06:48:41;0.00;;;0.00;;
14056;SDS011;7103;54.300;10.180;2023-04-15T06:51:08;0.00;;;0.00;;
14056;SDS011;7103;54.300;10.180;2023-04-15T06:53:34;0.00;;;0.00;;
14056;SDS011;7103;54.300;10.180;2023-04-15T06:56:09;0.00;;;0.00;;
14056;SDS011;7103;54.300;10.180;2023-04-15T06:58:36;0.00;;;0.00;;
14056;SDS011;7103;54.300;10.180;2023-04-15T07:01:03;0.10;;;0.10;;
14056;SDS011;7103;54.300;10.180;2023-04-15T07:03:30;0.00;;;0.00;;
14056;SDS011;7103;54.300;10.180;2023-04-15T07:05:58;0.07;;;0.07;;
14056;SDS011;7103;54.300;10.180;2023-04-15T07:08:26;0.00;;;0.00;;
14056;SDS011;7103;54.300;10.180;2023-04-15T07:10:53;0.00;;;0.00;;
14056;SDS011;7103;54.300;10.180;2023-04-15T07:13:20;0.00;;;0.00;;
14056;SDS011;7103;54.300;10.180;2023-04-15T07:15:47;0.00;;;0.00;;
14056;SDS011;7103;54.300;10.180;2023-04-15T07:18:14;0.10;;;0.10;;
14056;SDS011;7103;54.300;10.180;2023-04-15T07:20:41;0.10;;;0.10;;
14056;SDS011;7103;54.300;10.180;2023-04-15T07:23:08;0.00;;;0.00;;
14056;SDS011;7103;54.300;10.180;2023-04-15T07:25:35;0.10;;;0.10;;
14056;SDS011;7103;54.300;10.180;2023-04-15T07:28:02;0.00;;;0.00;;
14056;SDS011;7103;54.300;10.180;2023-04-15T07:30:29;0.00;;;0.00;;
14056;SDS011;7103;54.300;10.180;2023-04-15T07:32:57;0.10;;;0.10;;
14056;SDS011;7103;54.300;10.180;2023-04-15T07:35:24;0.10;;;0.10;;
14056;SDS011;7103;54.300;10.180;2023-04-15T07:37:51;0.00;;;0.00;;
14056;SDS011;7103;54.300;10.180;2023-04-15T07:40:18;0.00;;;0.00;;
14056;SDS011;7103;54.300;10.180;2023-04-15T07:42:45;0.10;;;0.10;;
14056;SDS011;7103;54.300;10.180;2023-04-15T07:45:14;0.00;;;0.00;;
14056;SDS011;7103;54.300;10.180;2023-04-15T07:47:42;0.00;;;0.00;;
14056;SDS011;7103;54.300;10.180;2023-04-15T07:50:09;0.10;;;0.10;;
14056;SDS011;7103;54.300;10.180;2023-04-15T07:52:39;0.10;;;0.10;;
14056;SDS011;7103;54.300;10.180;2023-04-15T07:55:07;0.10;;;0.10;;
14056;SDS011;7103;54.300;10.180;2023-04-15T07:57:36;0.10;;;0.10;;
14056;SDS011;7103;54.300;10.180;2023-04-15T08:00:03;0.00;;;0.00;;
14056;SDS011;7103;54.300;10.180;2023-04-15T08:02:32;0.10;;;0.10;;
14056;SDS011;7103;54.300;10.180;2023-04-15T08:05:03;0.00;;;0.00;;
14056;SDS011;7103;54.300;10.180;2023-04-15T08:07:30;0.00;;;0.00;;
14056;SDS011;7103;54.300;10.180;2023-04-15T08:09:57;0.10;;;0.10;;
14056;SDS011;7103;54.300;10.180;2023-04-15T08:12:24;0.10;;;0.10;;
14056;SDS011;7103;54.300;10.180;2023-04-15T08:14:51;0.10;;;0.10;;
14056;SDS011;7103;54.300;10.180;2023-04-15T08:17:18;0.10;;;0.10;;
14056;SDS011;7103;54.300;10.180;2023-04-15T08:19:45;0.10;;;0.10;;
14056;SDS011;7103;54.300;10.180;2023-04-15T08:22:13;0.00;;;0.00;;
14056;SDS011;7103;54.300;10.180;2023-04-15T08:24:44;0.10;;;0.10;;
14056;SDS011;7103;54.300;10.180;2023-04-15T08:27:11;0.10;;;0.10;;
14056;SDS011;7103;54.300;10.180;2023-04-15T08:29:38;0.10;;;0.10;;
14056;SDS011;7103;54.300;10.180;2023-04-15T08:32:06;0.10;;;0.10;;
14056;SDS011;7103;54.300;10.180;2023-04-15T08:34:33;0.10;;;0.10;;
14056;SDS011;7103;54.300;10.180;2023-04-15T08:37:00;0.10;;;0.10;;
14056;SDS011;7103;54.300;10.180;2023-04-15T08:39:27;0.10;;;0.10;;
14056;SDS011;7103;54.300;10.180;2023-04-15T08:42:03;0.10;;;0.10;;
14056;SDS011;7103;54.300;10.180;2023-04-15T08:44:37;0.10;;;0.10;;
14056;SDS011;7103;54.300;10.180;2023-04-15T08:47:06;0.10;;;0.10;;
14056;SDS011;7103;54.300;10.180;2023-04-15T08:49:38;0.10;;;0.10;;
14056;SDS011;7103;54.300;10.180;2023-04-15T08:52:07;0.10;;;0.10;;
14056;SDS011;7103;54.300;10.180;2023-04-15T08:54:34;0.10;;;0.10;;
14056;SDS011;7103;54.300;10.180;2023-04-15T08:57:02;0.10;;;0.10;;
14056;SDS011;7103;54.300;10.180;2023-04-15T08:59:30;0.10;;;0.10;;
14056;SDS011;7103;54.300;10.180;2023-04-15T09:01:57;0.10;;;0.10;;
14056;SDS011;7103;54.300;10.180;2023-04-15T09:04:24;0.10;;;0.10;;
14056;SDS011;7103;54.300;10.180;2023-04-15T09:06:51;0.10;;;0.10;;
14056;SDS011;7103;54.300;10.180;2023-04-15T09:09:18;0.20;;;0.20;;
14056;SDS011;7103;54.300;10.180;2023-04-15T09:11:45;0.10;;;0.10;;
14056;SDS011;7103;54.300;10.180;2023-04-15T09:14:12;0.10;;;0.10;;
14056;SDS011;7103;54.300;10.180;2023-04-15T09:16:55;0.10;;;0.10;;
14056;SDS011;7103;54.300;10.180;2023-04-15T09:19:26;0.20;;;0.20;;
14056;SDS011;7103;54.300;10.180;2023-04-15T09:21:55;0.10;;;0.10;;
14056;SDS011;7103;54.300;10.180;2023-04-15T09:24:24;0.10;;;0.10;;
14056;SDS011;7103;54.300;10.180;2023-04-15T09:27:01;0.10;;;0.10;;
14056;SDS011;7103;54.300;10.180;2023-04-15T09:29:29;0.10;;;0.10;;
14056;SDS011;7103;54.300;10.180;2023-04-15T09:31:57;0.10;;;0.10;;
14056;SDS011;7103;54.300;10.180;2023-04-15T09:34:35;0.10;;;0.10;;
14056;SDS011;7103;54.300;10.180;2023-04-15T09:37:03;0.10;;;0.10;;
14056;SDS011;7103;54.300;10.180;2023-04-15T09:39:46;0.10;;;0.10;;
14056;SDS011;7103;54.300;10.180;2023-04-15T09:42:15;0.20;;;0.20;;
14056;SDS011;7103;54.300;10.180;2023-04-15T09:44:52;0.20;;;0.20;;
14056;SDS011;7103;54.300;10.180;2023-04-15T09:47:26;0.20;;;0.20;;
14056;SDS011;7103;54.300;10.180;2023-04-15T09:49:55;0.20;;;0.20;;
14056;SDS011;7103;54.300;10.180;2023-04-15T09:52:23;0.20;;;0.20;;
14056;SDS011;7103;54.300;10.180;2023-04-15T09:54:51;0.30;;;0.30;;
14056;SDS011;7103;54.300;10.180;2023-04-15T09:57:21;0.20;;;0.20;;
14056;SDS011;7103;54.300;10.180;2023-04-15T09:59:49;0.30;;;0.30;;
14056;SDS011;7103;54.300;10.180;2023-04-15T10:02:17;0.30;;;0.30;;
14056;SDS011;7103;54.300;10.180;2023-04-15T10:04:47;0.20;;;0.20;;
14056;SDS011;7103;54.300;10.180;2023-04-15T10:07:14;0.30;;;0.30;;
14056;SDS011;7103;54.300;10.180;2023-04-15T10:09:45;0.30;;;0.30;;
14056;SDS011;7103;54.300;10.180;2023-04-15T10:12:17;0.20;;;0.20;;
14056;SDS011;7103;54.300;10.180;2023-04-15T10:14:47;0.30;;;0.30;;
14056;SDS011;7103;54.300;10.180;2023-04-15T10:17:18;0.30;;;0.30;;
14056;SDS011;7103;54.300;10.180;2023-04-15T10:19:48;0.20;;;0.20;;
14056;SDS011;7103;54.300;10.180;2023-04-15T10:22:18;0.20;;;0.20;;
14056;SDS011;7103;54.300;10.180;2023-04-15T10:24:45;0.30;;;0.30;;
14056;SDS011;7103;54.300;10.180;2023-04-15T10:27:15;0.30;;;0.30;;
14056;SDS011;7103;54.300;10.180;2023-04-15T10:29:43;0.37;;;0.37;;
14056;SDS011;7103;54.300;10.180;2023-04-15T10:32:10;0.30;;;0.30;;
14056;SDS011;7103;54.300;10.180;2023-04-15T10:34:39;0.30;;;0.30;;
14056;SDS011;7103;54.300;10.180;2023-04-15T10:37:07;0.30;;;0.30;;
14056;SDS011;7103;54.300;10.180;2023-04-15T10:42:10;0.27;;;0.27;;
14056;SDS011;7103;54.300;10.180;2023-04-15T10:44:41;0.20;;;0.20;;
14056;SDS011;7103;54.300;10.180;2023-04-15T10:47:15;0.20;;;0.20;;
14056;SDS011;7103;54.300;10.180;2023-04-15T10:49:45;0.30;;;0.30;;
14056;SDS011;7103;54.300;10.180;2023-04-15T10:52:21;0.30;;;0.30;;
14056;SDS011;7103;54.300;10.180;2023-04-15T10:55:00;0.27;;;0.27;;
14056;SDS011;7103;54.300;10.180;2023-04-15T10:57:37;0.30;;;0.30;;
14056;SDS011;7103;54.300;10.180;2023-04-15T11:02:59;0.30;;;0.30;;
14056;SDS011;7103;54.300;10.180;2023-04-15T11:08:08;0.20;;;0.20;;
14056;SDS011;7103;54.300;10.180;2023-04-15T11:13:04;0.30;;;0.30;;
14056;SDS011;7103;54.300;10.180;2023-04-15T11:15:40;0.30;;;0.30;;
14056;SDS011;7103;54.300;10.180;2023-04-15T11:23:18;0.30;;;0.30;;
14056;SDS011;7103;54.300;10.180;2023-04-15T11:25:45;0.30;;;0.30;;
14056;SDS011;7103;54.300;10.180;2023-04-15T11:28:14;0.30;;;0.30;;
14056;SDS011;7103;54.300;10.180;2023-04-15T11:30:41;0.30;;;0.30;;
14056;SDS011;7103;54.300;10.180;2023-04-15T11:33:09;0.30;;;0.30;;
14056;SDS011;7103;54.300;10.180;2023-04-15T11:35:39;0.30;;;0.30;;
14056;SDS011;7103;54.300;10.180;2023-04-15T11:38:10;0.20;;;0.20;;
14056;SDS011;7103;54.300;10.180;2023-04-15T11:40:39;0.20;;;0.20;;
14056;SDS011;7103;54.300;10.180;2023-04-15T11:43:11;0.30;;;0.30;;
14056;SDS011;7103;54.300;10.180;2023-04-15T11:45:48;0.30;;;0.30;;
14056;SDS011;7103;54.300;10.180;2023-04-15T11:48:24;0.30;;;0.30;;
14056;SDS011;7103;54.300;10.180;2023-04-15T11:50:56;0.40;;;0.40;;
14056;SDS011;7103;54.300;10.180;2023-04-15T11:56:08;0.40;;;0.40;;
14056;SDS011;7103;54.300;10.180;2023-04-15T11:58:37;0.30;;;0.30;;
14056;SDS011;7103;54.300;10.180;2023-04-15T12:01:04;0.30;;;0.30;;
14056;SDS011;7103;54.300;10.180;2023-04-15T12:03:39;0.20;;;0.20;;
14056;SDS011;7103;54.300;10.180;2023-04-15T12:06:19;0.40;;;0.40;;
14056;SDS011;7103;54.300;10.180;2023-04-15T12:08:50;0.30;;;0.30;;
14056;SDS011;7103;54.300;10.180;2023-04-15T12:11:20;0.40;;;0.40;;
14056;SDS011;7103;54.300;10.180;2023-04-15T12:13:53;0.30;;;0.30;;
14056;SDS011;7103;54.300;10.180;2023-04-15T12:16:34;0.30;;;0.30;;
14056;SDS011;7103;54.300;10.180;2023-04-15T12:19:16;0.30;;;0.30;;
14056;SDS011;7103;54.300;10.180;2023-04-15T12:21:48;0.30;;;0.30;;
14056;SDS011;7103;54.300;10.180;2023-04-15T12:24:18;0.30;;;0.30;;
14056;SDS011;7103;54.300;10.180;2023-04-15T12:26:48;0.30;;;0.30;;
14056;SDS011;7103;54.300;10.180;2023-04-15T12:29:17;0.30;;;0.30;;
14056;SDS011;7103;54.300;10.180;2023-04-15T12:32:18;0.20;;;0.20;;
14056;SDS011;7103;54.300;10.180;2023-04-15T12:37:16;0.30;;;0.30;;
14056;SDS011;7103;54.300;10.180;2023-04-15T12:39:45;0.20;;;0.20;;
14056;SDS011;7103;54.300;10.180;2023-04-15T12:42:14;0.30;;;0.30;;
14056;SDS011;7103;54.300;10.180;2023-04-15T12:44:42;0.30;;;0.30;;
14056;SDS011;7103;54.300;10.180;2023-04-15T12:47:10;0.30;;;0.30;;
14056;SDS011;7103;54.300;10.180;2023-04-15T12:49:37;0.30;;;0.30;;
14056;SDS011;7103;54.300;10.180;2023-04-15T12:52:05;0.30;;;0.30;;
14056;SDS011;7103;54.300;10.180;2023-04-15T12:54:32;0.30;;;0.30;;
14056;SDS011;7103;54.300;10.180;2023-04-15T12:57:00;0.30;;;0.30;;
14056;SDS011;7103;54.300;10.180;2023-04-15T12:59:32;0.20;;;0.20;;
14056;SDS011;7103;54.300;10.180;2023-04-15T13:01:59;0.30;;;0.30;;
14056;SDS011;7103;54.300;10.180;2023-04-15T13:04:28;0.30;;;0.30;;
14056;SDS011;7103;54.300;10.180;2023-04-15T13:06:58;0.30;;;0.30;;
14056;SDS011;7103;54.300;10.180;2023-04-15T13:09:26;0.40;;;0.40;;
14056;SDS011;7103;54.300;10.180;2023-04-15T13:11:53;0.30;;;0.30;;
14056;SDS011;7103;54.300;10.180;2023-04-15T13:14:21;0.20;;;0.20;;
14056;SDS011;7103;54.300;10.180;2023-04-15T13:16:48;0.30;;;0.30;;
14056;SDS011;7103;54.300;10.180;2023-04-15T13:19:15;0.30;;;0.30;;
14056;SDS011;7103;54.300;10.180;2023-04-15T13:21:42;0.30;;;0.30;;
14056;SDS011;7103;54.300;10.180;2023-04-15T13:24:10;0.30;;;0.30;;
14056;SDS011;7103;54.300;10.180;2023-04-15T13:26:36;0.30;;;0.30;;
14056;SDS011;7103;54.300;10.180;2023-04-15T13:29:04;0.30;;;0.30;;
14056;SDS011;7103;54.300;10.180;2023-04-15T13:31:31;0.30;;;0.30;;
14056;SDS011;7103;54.300;10.180;2023-04-15T13:33:58;0.40;;;0.40;;
14056;SDS011;7103;54.300;10.180;2023-04-15T13:36:25;0.20;;;0.20;;
14056;SDS011;7103;54.300;10.180;2023-04-15T13:38:52;0.30;;;0.30;;
14056;SDS011;7103;54.300;10.180;2023-04-15T13:41:19;0.40;;;0.40;;
14056;SDS011;7103;54.300;10.180;2023-04-15T13:43:47;0.30;;;0.30;;
14056;SDS011;7103;54.300;10.180;2023-04-15T13:46:14;0.30;;;0.30;;
14056;SDS011;7103;54.300;10.180;2023-04-15T13:48:41;0.30;;;0.30;;
14056;SDS011;7103;54.300;10.180;2023-04-15T13:51:08;0.30;;;0.30;;
14056;SDS011;7103;54.300;10.180;2023-04-15T13:53:35;0.40;;;0.40;;
14056;SDS011;7103;54.300;10.180;2023-04-15T13:56:04;0.30;;;0.30;;
14056;SDS011;7103;54.300;10.180;2023-04-15T13:58:32;0.30;;;0.30;;
14056;SDS011;7103;54.300;10.180;2023-04-15T14:00:59;0.40;;;0.40;;
14056;SDS011;7103;54.300;10.180;2023-04-15T14:03:29;0.30;;;0.30;;
14056;SDS011;7103;54.300;10.180;2023-04-15T14:05:56;0.30;;;0.30;;
14056;SDS011;7103;54.300;10.180;2023-04-15T14:08:23;0.30;;;0.30;;
14056;SDS011;7103;54.300;10.180;2023-04-15T14:10:51;0.40;;;0.40;;
14056;SDS011;7103;54.300;10.180;2023-04-15T14:13:18;0.30;;;0.30;;
14056;SDS011;7103;54.300;10.180;2023-04-15T14:15:45;0.30;;;0.30;;
14056;SDS011;7103;54.300;10.180;2023-04-15T14:18:12;0.30;;;0.30;;
14056;SDS011;7103;54.300;10.180;2023-04-15T14:20:39;0.30;;;0.30;;
14056;SDS011;7103;54.300;10.180;2023-04-15T14:23:06;0.40;;;0.40;;
14056;SDS011;7103;54.300;10.180;2023-04-15T14:25:33;0.30;;;0.30;;
14056;SDS011;7103;54.300;10.180;2023-04-15T14:28:01;0.40;;;0.40;;
14056;SDS011;7103;54.300;10.180;2023-04-15T14:30:28;0.40;;;0.40;;
14056;SDS011;7103;54.300;10.180;2023-04-15T14:32:56;0.30;;;0.30;;
14056;SDS011;7103;54.300;10.180;2023-04-15T14:35:23;0.30;;;0.30;;
14056;SDS011;7103;54.300;10.180;2023-04-15T14:37:55;0.30;;;0.30;;
14056;SDS011;7103;54.300;10.180;2023-04-15T14:40:22;0.30;;;0.30;;
14056;SDS011;7103;54.300;10.180;2023-04-15T14:42:49;0.33;;;0.33;;
14056;SDS011;7103;54.300;10.180;2023-04-15T14:45:16;0.30;;;0.30;;
14056;SDS011;7103;54.300;10.180;2023-04-15T14:47:43;0.30;;;0.30;;
14056;SDS011;7103;54.300;10.180;2023-04-15T14:50:13;0.30;;;0.30;;
14056;SDS011;7103;54.300;10.180;2023-04-15T14:52:41;0.30;;;0.30;;
14056;SDS011;7103;54.300;10.180;2023-04-15T14:55:09;0.30;;;0.30;;
14056;SDS011;7103;54.300;10.180;2023-04-15T14:57:38;0.30;;;0.30;;
14056;SDS011;7103;54.300;10.180;2023-04-15T15:00:06;0.30;;;0.30;;
14056;SDS011;7103;54.300;10.180;2023-04-15T15:02:35;0.30;;;0.30;;
14056;SDS011;7103;54.300;10.180;2023-04-15T15:05:06;0.30;;;0.30;;
14056;SDS011;7103;54.300;10.180;2023-04-15T15:07:34;0.30;;;0.30;;
14056;SDS011;7103;54.300;10.180;2023-04-15T15:10:04;0.30;;;0.30;;
14056;SDS011;7103;54.300;10.180;2023-04-15T15:12:32;0.30;;;0.30;;
14056;SDS011;7103;54.300;10.180;2023-04-15T15:14:59;0.30;;;0.30;;